createdAt,value
2023-03-19T00:01:06.180Z,16.03
2023-03-19T00:03:35.341Z,16.07
2023-03-19T00:06:04.482Z,16.97
2023-03-19T00:08:33.366Z,16.53
2023-03-19T00:11:09.326Z,16.63
2023-03-19T00:13:38.125Z,17.17
2023-03-19T00:16:08.196Z,16.50
2023-03-19T00:18:37.071Z,16.10
2023-03-19T00:21:06.225Z,16.70
2023-03-19T00:23:35.144Z,14.87
2023-03-19T00:26:04.076Z,15.43
2023-03-19T00:28:34.366Z,17.67
2023-03-19T00:31:09.821Z,17.00
2023-03-19T00:33:38.626Z,16.17
2023-03-19T00:36:08.841Z,18.30
2023-03-19T00:38:37.982Z,16.83
2023-03-19T00:41:07.975Z,17.00
2023-03-19T00:43:38.552Z,16.10
2023-03-19T00:46:07.640Z,17.83
2023-03-19T00:48:36.419Z,16.57
2023-03-19T00:51:05.842Z,17.00
2023-03-19T00:53:35.058Z,17.03
2023-03-19T00:56:03.845Z,16.83
2023-03-19T00:58:32.556Z,16.90
2023-03-19T01:01:03.870Z,16.17
2023-03-19T01:03:32.748Z,16.90
2023-03-19T01:06:01.524Z,14.60
2023-03-19T01:08:30.385Z,16.50
2023-03-19T01:11:05.705Z,15.70
2023-03-19T01:13:34.527Z,16.30
2023-03-19T01:16:04.824Z,16.63
2023-03-19T01:18:33.583Z,16.37
2023-03-19T01:21:02.414Z,15.90
2023-03-19T01:23:31.399Z,16.80
2023-03-19T01:26:00.183Z,16.27
2023-03-19T01:28:28.897Z,17.37
2023-03-19T01:31:01.331Z,18.13
2023-03-19T01:33:31.493Z,17.60
2023-03-19T01:36:02.906Z,17.80
2023-03-19T01:38:31.862Z,18.13
2023-03-19T01:41:01.157Z,18.40
2023-03-19T01:43:31.619Z,18.30
2023-03-19T01:46:03.751Z,19.90
2023-03-19T01:48:40.929Z,19.63
2023-03-19T01:51:12.184Z,19.87
2023-03-19T01:53:43.271Z,20.50
2023-03-19T01:56:16.570Z,19.27
2023-03-19T01:58:49.898Z,19.23
2023-03-19T02:01:19.083Z,20.40
2023-03-19T02:03:51.297Z,21.37
2023-03-19T02:06:21.750Z,21.30
2023-03-19T02:08:52.765Z,20.77
2023-03-19T02:11:23.266Z,21.53
2023-03-19T02:13:52.144Z,19.90
2023-03-19T02:16:21.177Z,21.23
2023-03-19T02:18:51.711Z,23.30
2023-03-19T02:21:22.216Z,23.10
2023-03-19T02:23:56.978Z,22.80
2023-03-19T02:26:29.113Z,23.73
2023-03-19T02:28:58.120Z,24.00
2023-03-19T02:31:28.303Z,23.00
2023-03-19T02:34:01.642Z,23.90
2023-03-19T02:36:34.293Z,24.47
2023-03-19T02:39:04.887Z,23.67
2023-03-19T02:41:38.604Z,24.70
2023-03-19T02:44:08.975Z,22.70
2023-03-19T02:46:37.698Z,22.60
2023-03-19T02:49:06.410Z,21.90
2023-03-19T02:51:35.358Z,23.80
2023-03-19T02:54:04.108Z,21.30
2023-03-19T02:56:32.850Z,22.13
2023-03-19T02:59:03.227Z,22.97
2023-03-19T03:01:31.945Z,25.20
2023-03-19T03:04:00.731Z,24.17
2023-03-19T03:06:29.458Z,25.00
2023-03-19T03:08:58.163Z,24.60
2023-03-19T03:11:27.293Z,25.13
2023-03-19T03:13:56.633Z,23.57
2023-03-19T03:16:27.486Z,25.23
2023-03-19T03:18:56.587Z,24.40
2023-03-19T03:21:25.750Z,24.17
2023-03-19T03:23:54.418Z,24.07
2023-03-19T03:26:23.396Z,25.97
2023-03-19T03:28:52.378Z,24.70
2023-03-19T03:31:21.439Z,22.63
2023-03-19T03:33:51.976Z,26.83
2023-03-19T03:36:20.725Z,26.03
2023-03-19T03:38:49.485Z,26.67
2023-03-19T03:41:18.225Z,27.53
2023-03-19T03:43:46.932Z,31.80
2023-03-19T03:46:15.705Z,29.30
2023-03-19T03:48:44.459Z,31.50
2023-03-19T03:51:14.877Z,29.67
2023-03-19T03:53:43.555Z,26.53
2023-03-19T03:56:12.227Z,24.17
2023-03-19T03:58:41.838Z,25.27
2023-03-19T04:01:13.246Z,24.77
2023-03-19T04:03:41.950Z,24.73
2023-03-19T04:06:15.036Z,24.77
2023-03-19T04:08:43.793Z,24.77
2023-03-19T04:11:12.748Z,25.10
2023-03-19T04:13:41.745Z,22.80
2023-03-19T04:16:11.755Z,24.70
2023-03-19T04:18:40.581Z,22.80
2023-03-19T04:21:09.901Z,25.07
2023-03-19T04:23:40.175Z,24.13
2023-03-19T04:26:08.925Z,26.10
2023-03-19T04:28:37.703Z,22.33
2023-03-19T04:31:08.253Z,24.70
2023-03-19T04:33:37.433Z,24.80
2023-03-19T04:36:07.230Z,24.07
2023-03-19T04:38:35.982Z,23.37
2023-03-19T04:41:06.562Z,24.37
2023-03-19T04:43:35.333Z,23.17
2023-03-19T04:46:04.042Z,25.53
2023-03-19T04:48:33.986Z,24.33
2023-03-19T04:51:03.276Z,24.10
2023-03-19T04:53:33.187Z,24.70
2023-03-19T04:56:02.304Z,23.57
2023-03-19T04:58:32.449Z,20.80
2023-03-19T05:01:01.347Z,24.30
2023-03-19T05:03:30.176Z,24.53
2023-03-19T05:05:58.941Z,24.97
2023-03-19T05:08:27.675Z,24.83
2023-03-19T05:10:56.285Z,23.87
2023-03-19T05:13:25.007Z,22.47
2023-03-19T05:15:56.924Z,24.93
2023-03-19T05:18:26.299Z,23.60
2023-03-19T05:20:55.554Z,24.83
2023-03-19T05:23:24.551Z,22.50
2023-03-19T05:25:53.302Z,23.33
2023-03-19T05:28:22.080Z,23.57
2023-03-19T05:30:51.643Z,24.67
2023-03-19T05:33:22.712Z,25.17
2023-03-19T05:35:51.947Z,22.97
2023-03-19T05:38:21.301Z,24.37
2023-03-19T05:40:50.025Z,25.60
2023-03-19T05:43:19.260Z,23.20
2023-03-19T05:45:53.045Z,22.80
2023-03-19T05:48:23.616Z,24.40
2023-03-19T05:50:52.827Z,24.87
2023-03-19T05:53:21.743Z,22.10
2023-03-19T05:55:50.684Z,23.33
2023-03-19T05:58:19.367Z,22.43
2023-03-19T06:00:48.797Z,23.60
2023-03-19T06:03:17.669Z,22.70
2023-03-19T06:05:51.640Z,21.57
2023-03-19T06:08:21.707Z,23.10
2023-03-19T06:10:50.368Z,23.60
2023-03-19T06:13:19.060Z,22.40
2023-03-19T06:15:49.271Z,21.90
2023-03-19T06:18:18.316Z,22.67
2023-03-19T06:20:48.826Z,22.57
2023-03-19T06:23:17.701Z,23.17
2023-03-19T06:25:46.378Z,22.27
2023-03-19T06:28:15.080Z,23.00
2023-03-19T06:30:44.014Z,22.77
2023-03-19T06:33:12.837Z,21.17
2023-03-19T06:35:41.724Z,21.17
2023-03-19T06:38:11.983Z,21.60
2023-03-19T06:40:40.845Z,19.90
2023-03-19T06:43:09.640Z,20.80
2023-03-19T06:45:38.473Z,20.53
2023-03-19T06:48:07.680Z,20.00
2023-03-19T06:50:36.480Z,19.63
2023-03-19T06:53:05.443Z,19.53
2023-03-19T06:55:35.634Z,19.83
2023-03-19T06:58:04.801Z,19.93
2023-03-19T07:00:33.931Z,19.40
2023-03-19T07:03:02.882Z,18.33
2023-03-19T07:05:31.708Z,17.70
2023-03-19T07:08:00.508Z,19.10
2023-03-19T07:10:29.388Z,17.80
2023-03-19T07:12:59.806Z,16.33
2023-03-19T07:15:28.684Z,19.70
2023-03-19T07:17:57.519Z,17.93
2023-03-19T07:20:26.361Z,17.10
2023-03-19T07:22:55.530Z,17.40
2023-03-19T07:25:24.456Z,17.90
2023-03-19T07:27:55.927Z,16.53
2023-03-19T07:30:26.517Z,17.90
2023-03-19T07:32:56.364Z,18.30
2023-03-19T07:35:25.188Z,17.03
2023-03-19T07:37:54.022Z,16.07
2023-03-19T07:40:22.906Z,16.33
2023-03-19T07:42:51.730Z,16.63
2023-03-19T07:45:20.772Z,15.57
2023-03-19T07:47:51.767Z,17.27
2023-03-19T07:50:20.732Z,15.83
2023-03-19T07:52:49.621Z,16.70
2023-03-19T07:55:18.613Z,15.80
2023-03-19T07:57:47.935Z,17.37
2023-03-19T08:00:17.890Z,14.43
2023-03-19T08:02:47.021Z,15.93
2023-03-19T08:05:17.315Z,16.13
2023-03-19T08:07:47.517Z,15.13
2023-03-19T08:10:16.403Z,15.23
2023-03-19T08:12:45.518Z,16.37
2023-03-19T08:15:14.700Z,15.27
2023-03-19T08:17:43.530Z,14.53
2023-03-19T08:20:16.588Z,15.87
2023-03-19T08:22:50.969Z,15.10
2023-03-19T08:25:19.923Z,15.33
2023-03-19T08:27:48.726Z,14.93
2023-03-19T08:30:18.236Z,15.17
2023-03-19T08:32:47.099Z,16.10
2023-03-19T08:35:16.288Z,14.27
2023-03-19T08:37:46.765Z,16.00
2023-03-19T08:40:15.985Z,14.10
2023-03-19T08:42:45.449Z,14.63
2023-03-19T08:45:16.278Z,14.00
2023-03-19T08:47:45.596Z,15.67
2023-03-19T08:50:14.754Z,15.20
2023-03-19T08:52:43.634Z,15.00
2023-03-19T08:55:13.883Z,14.20
2023-03-19T08:57:42.670Z,14.03
2023-03-19T09:00:12.736Z,14.73
2023-03-19T09:02:41.710Z,14.97
2023-03-19T09:05:13.364Z,13.37
2023-03-19T09:07:42.328Z,14.03
2023-03-19T09:10:13.233Z,13.10
2023-03-19T09:12:42.016Z,13.80
2023-03-19T09:15:11.357Z,12.17
2023-03-19T09:17:40.230Z,12.77
2023-03-19T09:20:10.654Z,12.93
2023-03-19T09:22:39.521Z,15.97
2023-03-19T09:25:09.389Z,12.47
2023-03-19T09:27:39.840Z,12.37
2023-03-19T09:30:10.742Z,13.37
2023-03-19T09:32:39.733Z,12.93
2023-03-19T09:35:09.803Z,11.60
2023-03-19T09:37:38.622Z,11.67
2023-03-19T09:40:08.857Z,13.33
2023-03-19T09:43:00.510Z,11.80
2023-03-19T09:45:31.154Z,12.70
2023-03-19T09:48:06.994Z,13.07
2023-03-19T09:50:36.814Z,13.20
2023-03-19T09:53:13.469Z,11.90
2023-03-19T09:55:45.820Z,11.57
2023-03-19T09:58:20.065Z,10.30
2023-03-19T10:00:51.393Z,11.10
2023-03-19T10:03:37.319Z,17.77
2023-03-19T10:06:21.552Z,11.30
2023-03-19T10:09:05.982Z,10.63
2023-03-19T10:11:50.626Z,10.50
2023-03-19T10:14:40.693Z,10.53
2023-03-19T10:17:17.223Z,28.37
2023-03-19T10:19:51.715Z,10.00
2023-03-19T10:22:24.530Z,10.03
2023-03-19T10:24:55.654Z,10.20
2023-03-19T10:27:28.710Z,10.50
2023-03-19T10:29:59.133Z,9.33
2023-03-19T10:32:38.213Z,10.43
2023-03-19T10:35:18.050Z,10.70
2023-03-19T10:37:46.896Z,9.40
2023-03-19T10:40:23.413Z,9.20
2023-03-19T10:43:18.275Z,9.90
2023-03-19T10:45:49.609Z,9.00
2023-03-19T10:48:20.857Z,8.90
2023-03-19T10:50:54.258Z,9.80
2023-03-19T10:53:35.265Z,8.97
2023-03-19T10:56:06.770Z,10.33
2023-03-19T10:58:36.971Z,9.73
2023-03-19T11:01:09.982Z,9.27
2023-03-19T11:03:41.154Z,9.50
2023-03-19T11:06:19.788Z,10.50
2023-03-19T11:08:57.123Z,8.90
2023-03-19T11:11:35.939Z,8.40
2023-03-19T11:14:11.987Z,8.70
2023-03-19T11:16:59.652Z,8.57
2023-03-19T11:19:31.084Z,9.00
2023-03-19T11:22:11.549Z,8.17
2023-03-19T11:24:41.836Z,8.70
2023-03-19T11:27:11.957Z,9.27
2023-03-19T11:29:43.663Z,8.10
2023-03-19T11:32:32.951Z,10.33
2023-03-19T11:35:05.857Z,9.57
2023-03-19T11:37:50.929Z,10.30
2023-03-19T11:40:31.848Z,8.67
2023-03-19T11:43:21.425Z,9.43
2023-03-19T11:46:01.178Z,9.10
2023-03-19T11:48:41.866Z,8.83
2023-03-19T11:51:15.295Z,9.53
2023-03-19T11:53:58.535Z,8.60
2023-03-19T11:56:35.554Z,8.20
2023-03-19T11:59:30.834Z,8.97
2023-03-19T12:02:17.607Z,9.77
2023-03-19T12:05:08.460Z,9.80
2023-03-19T12:07:45.977Z,10.50
2023-03-19T12:10:40.602Z,11.00
2023-03-19T12:13:25.915Z,10.67
2023-03-19T12:16:02.777Z,10.50
2023-03-19T12:18:52.444Z,10.63
2023-03-19T12:21:30.818Z,11.00
2023-03-19T12:24:05.845Z,11.30
2023-03-19T12:26:49.791Z,11.30
2023-03-19T12:29:27.630Z,12.17
2023-03-19T12:32:11.957Z,11.77
2023-03-19T12:34:48.091Z,11.90
2023-03-19T12:37:24.173Z,10.10
2023-03-19T12:40:03.850Z,10.43
2023-03-19T12:42:39.413Z,10.10
2023-03-19T12:45:33.326Z,10.20
2023-03-19T12:48:08.688Z,10.90
2023-03-19T12:50:41.061Z,11.27
2023-03-19T12:53:20.190Z,10.53
2023-03-19T12:55:55.996Z,11.50
2023-03-19T12:58:33.015Z,11.27
2023-03-19T13:01:07.701Z,10.10
2023-03-19T13:03:44.849Z,10.67
2023-03-19T13:06:21.030Z,11.00
2023-03-19T13:08:58.375Z,10.27
2023-03-19T13:11:36.711Z,11.80
2023-03-19T13:14:14.801Z,10.80
2023-03-19T13:16:52.210Z,11.30
2023-03-19T13:19:31.544Z,11.73
2023-03-19T13:22:05.922Z,10.93
2023-03-19T13:24:38.739Z,10.73
2023-03-19T13:27:13.264Z,10.03
2023-03-19T13:30:02.384Z,10.40
2023-03-19T13:32:39.339Z,11.10
2023-03-19T13:35:36.638Z,9.90
2023-03-19T13:38:17.287Z,10.73
2023-03-19T13:40:50.358Z,11.00
2023-03-19T13:43:44.295Z,11.80
2023-03-19T13:46:38.594Z,9.40
2023-03-19T13:49:26.684Z,9.90
2023-03-19T13:52:04.144Z,10.43
2023-03-19T13:54:40.390Z,10.43
2023-03-19T13:57:37.930Z,11.20
2023-03-19T14:00:51.474Z,10.40
2023-03-19T14:03:25.389Z,9.90
2023-03-19T14:05:57.932Z,9.47
2023-03-19T14:08:29.436Z,9.30
2023-03-19T14:11:02.018Z,9.57
2023-03-19T14:13:36.428Z,9.90
2023-03-19T14:16:16.936Z,9.43
2023-03-19T14:18:46.932Z,9.90
2023-03-19T14:21:21.959Z,9.27
2023-03-19T14:23:57.815Z,10.10
2023-03-19T14:26:29.862Z,10.27
2023-03-19T14:29:06.357Z,8.93
2023-03-19T14:31:43.407Z,10.10
2023-03-19T14:34:34.089Z,9.37
2023-03-19T14:37:06.953Z,9.80
2023-03-19T14:39:43.169Z,10.47
2023-03-19T14:42:21.937Z,10.60
2023-03-19T14:45:38.729Z,10.20
2023-03-19T14:48:45.290Z,10.90
2023-03-19T14:51:52.683Z,9.80
2023-03-19T14:54:30.103Z,9.27
2023-03-19T14:56:59.672Z,10.00
2023-03-19T14:59:41.743Z,8.90
2023-03-19T15:02:24.439Z,9.97
2023-03-19T15:04:59.562Z,10.17
2023-03-19T15:07:33.835Z,11.90
2023-03-19T15:10:06.721Z,9.70
2023-03-19T15:13:03.908Z,10.40
2023-03-19T15:16:04.262Z,9.83
2023-03-19T15:18:33.816Z,10.53
2023-03-19T15:21:06.372Z,10.10
2023-03-19T15:23:37.651Z,11.93
2023-03-19T15:26:11.899Z,13.33
2023-03-19T15:28:49.625Z,9.73
2023-03-19T15:31:31.837Z,10.70
2023-03-19T15:34:25.176Z,11.50
2023-03-19T15:37:07.362Z,10.83
2023-03-19T15:39:42.228Z,12.20
2023-03-19T15:42:12.891Z,11.10
2023-03-19T15:44:46.963Z,11.40
2023-03-19T15:47:23.824Z,10.27
2023-03-19T15:49:57.704Z,10.57
2023-03-19T15:52:36.742Z,10.07
2023-03-19T15:55:09.547Z,10.53
2023-03-19T15:57:44.319Z,9.70
2023-03-19T16:00:17.454Z,10.20
2023-03-19T16:02:51.438Z,10.63
2023-03-19T16:05:32.760Z,9.70
2023-03-19T16:08:13.340Z,11.40
2023-03-19T16:10:46.573Z,11.13
2023-03-19T16:13:33.820Z,10.90
2023-03-19T16:16:10.704Z,10.70
2023-03-19T16:18:47.693Z,19.53
2023-03-19T16:21:20.242Z,17.13
2023-03-19T16:23:58.857Z,15.60
2023-03-19T16:26:32.977Z,13.93
2023-03-19T16:29:10.665Z,14.73
2023-03-19T16:31:53.567Z,15.30
2023-03-19T16:34:37.624Z,15.00
2023-03-19T16:37:30.941Z,12.70
2023-03-19T16:40:08.883Z,13.60
2023-03-19T16:42:44.634Z,13.63
2023-03-19T16:45:37.668Z,13.90
2023-03-19T16:48:12.309Z,14.03
2023-03-19T16:50:48.539Z,13.83
2023-03-19T16:53:26.463Z,13.40
2023-03-19T16:56:03.307Z,12.90
2023-03-19T16:58:38.564Z,13.40
2023-03-19T17:01:21.854Z,15.37
2023-03-19T17:03:59.859Z,15.53
2023-03-19T17:06:36.165Z,16.20
2023-03-19T17:09:07.964Z,16.60
2023-03-19T17:11:43.569Z,18.57
2023-03-19T17:14:20.236Z,23.33
2023-03-19T17:16:57.819Z,19.97
2023-03-19T17:19:32.178Z,17.00
2023-03-19T17:22:03.695Z,17.20
2023-03-19T17:24:38.323Z,18.37
2023-03-19T17:27:12.298Z,17.20
2023-03-19T17:29:43.356Z,17.43
2023-03-19T17:32:23.773Z,17.93
2023-03-19T17:34:57.587Z,21.00
2023-03-19T17:37:31.415Z,23.10
2023-03-19T17:40:13.433Z,22.43
2023-03-19T17:42:46.818Z,22.43
2023-03-19T17:45:20.942Z,29.20
2023-03-19T17:47:58.623Z,43.07
2023-03-19T17:50:37.443Z,32.03
2023-03-19T17:53:12.597Z,23.10
2023-03-19T17:55:48.699Z,26.77
2023-03-19T17:58:27.536Z,29.50
2023-03-19T18:01:34.768Z,29.93
2023-03-19T18:04:07.338Z,32.03
2023-03-19T18:06:46.540Z,32.63
2023-03-19T18:09:29.824Z,30.60
2023-03-19T18:12:01.159Z,29.20
2023-03-19T18:14:48.531Z,31.73
2023-03-19T18:17:25.063Z,35.10
2023-03-19T18:20:19.304Z,34.87
2023-03-19T18:27:37.786Z,26.30
2023-03-19T18:30:20.745Z,29.00
2023-03-19T18:33:13.268Z,26.07
2023-03-19T18:35:48.024Z,25.57
2023-03-19T18:38:21.583Z,24.83
2023-03-19T18:40:56.798Z,23.77
2023-03-19T18:43:35.236Z,24.87
2023-03-19T18:46:29.778Z,23.73
2023-03-19T18:49:03.352Z,23.10
2023-03-19T18:51:34.122Z,23.47
2023-03-19T18:54:08.470Z,22.97
2023-03-19T18:56:43.125Z,24.13
2023-03-19T18:59:37.526Z,26.03
2023-03-19T19:02:36.458Z,23.53
2023-03-19T19:05:08.527Z,24.97
2023-03-19T19:07:44.317Z,24.40
2023-03-19T19:10:20.888Z,22.30
2023-03-19T19:12:55.709Z,21.47
2023-03-19T19:15:39.110Z,22.03
2023-03-19T19:18:40.604Z,23.00
2023-03-19T19:21:15.378Z,23.97
2023-03-19T19:23:56.772Z,23.67
2023-03-19T19:26:40.733Z,24.90
2023-03-19T19:29:21.019Z,22.27
2023-03-19T19:31:53.272Z,24.60
2023-03-19T19:34:29.010Z,21.80
2023-03-19T19:37:06.308Z,24.27
2023-03-19T19:39:38.662Z,27.10
2023-03-19T19:42:12.329Z,33.40
2023-03-19T19:44:45.526Z,27.93
2023-03-19T19:47:25.529Z,27.57
2023-03-19T19:53:55.366Z,32.17
2023-03-19T19:56:59.479Z,28.07
2023-03-19T19:59:32.409Z,34.93
2023-03-19T20:02:06.689Z,43.70
2023-03-19T20:04:57.070Z,32.40
2023-03-19T20:07:31.281Z,31.77
2023-03-19T20:10:02.436Z,31.47
2023-03-19T20:12:35.368Z,31.60
2023-03-19T20:15:19.562Z,32.37
2023-03-19T20:17:56.542Z,34.90
2023-03-19T20:20:29.885Z,36.63
2023-03-19T20:23:04.210Z,41.23
2023-03-19T20:25:38.622Z,37.60
2023-03-19T20:28:12.098Z,39.30
2023-03-19T20:30:47.738Z,39.30
2023-03-19T20:33:24.312Z,41.60
2023-03-19T20:35:55.292Z,39.67
2023-03-19T20:38:38.090Z,39.60
2023-03-19T20:41:20.294Z,42.03
2023-03-19T20:43:57.120Z,44.57
2023-03-19T20:46:32.508Z,38.17
2023-03-19T20:49:06.372Z,40.30
2023-03-19T20:51:44.428Z,40.27
2023-03-19T20:54:25.706Z,39.97
2023-03-19T20:56:57.075Z,39.87
2023-03-19T20:59:30.131Z,39.93
2023-03-19T21:02:06.285Z,39.90
2023-03-19T21:04:39.496Z,40.10
2023-03-19T21:08:02.380Z,45.20
2023-03-19T21:11:06.065Z,43.00
2023-03-19T21:13:43.856Z,40.47
2023-03-19T21:16:24.291Z,41.20
2023-03-19T21:18:59.855Z,40.80
2023-03-19T21:21:32.816Z,41.43
2023-03-19T21:24:08.212Z,40.20
2023-03-19T21:26:41.250Z,41.60
2023-03-19T21:29:19.330Z,41.00
2023-03-19T21:31:52.097Z,40.20
2023-03-19T21:34:21.436Z,38.30
2023-03-19T21:36:52.378Z,41.37
2023-03-19T21:39:22.270Z,39.23
2023-03-19T21:41:53.134Z,40.90
2023-03-19T21:44:25.695Z,37.10
2023-03-19T21:46:56.084Z,39.87
2023-03-19T21:49:25.037Z,37.40
2023-03-19T21:51:53.801Z,37.77
2023-03-19T21:54:22.670Z,39.07
2023-03-19T21:56:53.824Z,39.97
2023-03-19T21:59:28.463Z,36.77
2023-03-19T22:01:58.232Z,36.80
2023-03-19T22:04:29.073Z,35.77
2023-03-19T22:06:57.998Z,36.83
2023-03-19T22:09:26.950Z,37.77
2023-03-19T22:11:57.402Z,38.33
2023-03-19T22:14:28.799Z,36.10
2023-03-19T22:16:58.304Z,35.83
2023-03-19T22:19:28.405Z,37.60
2023-03-19T22:21:57.181Z,38.60
2023-03-19T22:24:26.066Z,35.13
2023-03-19T22:26:59.687Z,35.37
2023-03-19T22:29:28.798Z,42.60
2023-03-19T22:31:58.501Z,40.97
2023-03-19T22:34:29.069Z,34.60
2023-03-19T22:36:57.991Z,35.83
2023-03-19T22:39:26.869Z,35.50
2023-03-19T22:41:55.810Z,35.43
2023-03-19T22:44:29.828Z,37.83
2023-03-19T22:47:00.979Z,34.40
2023-03-19T22:49:31.698Z,32.80
2023-03-19T22:52:00.918Z,35.10
2023-03-19T22:54:29.782Z,34.63
2023-03-19T22:56:58.625Z,34.93
2023-03-19T22:59:29.681Z,33.67
2023-03-19T23:01:59.153Z,36.43
2023-03-19T23:04:30.746Z,33.50
2023-03-19T23:07:01.008Z,32.77
2023-03-19T23:09:32.029Z,30.60
2023-03-19T23:12:01.341Z,33.33
2023-03-19T23:14:32.441Z,30.90
2023-03-19T23:17:03.764Z,31.93
2023-03-19T23:19:34.453Z,32.20
2023-03-19T23:22:05.310Z,32.03
2023-03-19T23:24:34.222Z,30.87
2023-03-19T23:27:03.935Z,31.80
2023-03-19T23:29:37.113Z,30.03
2023-03-19T23:32:06.143Z,32.43
2023-03-19T23:34:42.484Z,30.97
2023-03-19T23:37:19.074Z,31.83
2023-03-19T23:39:48.376Z,30.53
2023-03-19T23:42:28.158Z,31.37
2023-03-19T23:45:01.525Z,31.30
2023-03-19T23:47:31.253Z,30.10
2023-03-19T23:50:00.641Z,32.80
2023-03-19T23:52:29.487Z,31.73
2023-03-19T23:54:58.385Z,31.70
2023-03-19T23:57:27.929Z,33.67
2023-03-19T23:59:58.738Z,30.03
